createdAt,value
2023-01-29T00:02:44.765Z,7.47
2023-01-29T00:07:49.429Z,6.55
2023-01-29T00:12:54.146Z,7.43
2023-01-29T00:18:00.141Z,6.80
2023-01-29T00:23:04.406Z,8.05
2023-01-29T00:28:08.881Z,8.52
2023-01-29T00:38:18.571Z,7.20
2023-01-29T00:43:41.382Z,7.07
2023-01-29T00:48:47.229Z,6.47
2023-01-29T00:53:52.189Z,6.32
2023-01-29T00:58:57.040Z,6.80
2023-01-29T01:04:02.617Z,6.63
2023-01-29T01:09:25.193Z,6.68
2023-01-29T01:14:29.473Z,6.55
2023-01-29T01:19:36.910Z,6.55
2023-01-29T01:24:41.388Z,7.20
2023-01-29T01:29:46.536Z,7.35
2023-01-29T01:34:54.008Z,6.00
2023-01-29T01:39:58.864Z,5.72
2023-01-29T01:45:08.082Z,5.82
2023-01-29T01:50:18.291Z,4.90
2023-01-29T01:55:27.713Z,6.25
2023-01-29T02:00:32.262Z,5.65
2023-01-29T02:11:01.138Z,6.13
2023-01-29T02:16:06.179Z,6.13
2023-01-29T02:21:51.717Z,7.13
2023-01-29T02:27:08.694Z,6.25
2023-01-29T02:32:31.653Z,6.90
2023-01-29T02:37:43.755Z,7.40
2023-01-29T02:42:54.583Z,7.72
2023-01-29T02:48:03.494Z,6.95
2023-01-29T02:53:15.971Z,7.10
2023-01-29T02:58:30.639Z,6.47
2023-01-29T03:03:41.716Z,7.28
2023-01-29T03:08:55.683Z,6.93
2023-01-29T03:14:05.572Z,5.95
2023-01-29T03:19:17.812Z,6.10
2023-01-29T03:24:49.478Z,6.43
2023-01-29T03:30:15.081Z,6.47
2023-01-29T03:35:39.802Z,6.32
2023-01-29T03:40:52.340Z,8.35
2023-01-29T03:46:08.408Z,7.67
2023-01-29T03:51:28.623Z,7.53
2023-01-29T03:56:45.804Z,7.13
2023-01-29T04:01:55.832Z,6.78
2023-01-29T04:07:12.162Z,7.82
2023-01-29T04:12:21.484Z,7.65
2023-01-29T04:17:33.033Z,8.18
2023-01-29T04:22:52.241Z,7.45
2023-01-29T04:28:06.656Z,8.32
2023-01-29T04:33:26.724Z,7.68
2023-01-29T04:38:47.278Z,7.28
2023-01-29T04:44:01.489Z,7.55
2023-01-29T04:49:19.582Z,8.38
2023-01-29T04:54:40.197Z,6.43
2023-01-29T04:59:51.841Z,6.85
2023-01-29T05:04:57.187Z,6.40
2023-01-29T05:10:03.638Z,5.22
2023-01-29T05:15:15.635Z,8.63
2023-01-29T05:20:19.998Z,7.95
2023-01-29T05:30:32.176Z,7.53
2023-01-29T05:35:36.659Z,7.75
2023-01-29T05:45:54.879Z,7.85
2023-01-29T05:51:01.838Z,6.47
2023-01-29T05:56:08.229Z,7.55
2023-01-29T06:01:15.216Z,8.45
2023-01-29T06:06:19.937Z,8.05
2023-01-29T06:11:26.033Z,8.57
2023-01-29T06:16:30.790Z,8.02
2023-01-29T06:26:40.926Z,8.40
2023-01-29T06:31:45.626Z,10.10
2023-01-29T06:36:50.187Z,11.30
2023-01-29T06:47:00.424Z,11.38
2023-01-29T06:52:04.997Z,9.55
2023-01-29T06:57:10.558Z,9.10
2023-01-29T07:02:15.707Z,10.27
2023-01-29T07:07:20.722Z,9.82
2023-01-29T07:12:26.613Z,11.75
2023-01-29T07:17:30.803Z,9.75
2023-01-29T07:22:34.971Z,9.93
2023-01-29T07:32:45.697Z,8.93
2023-01-29T07:37:51.356Z,12.57
2023-01-29T07:43:01.318Z,11.23
2023-01-29T07:48:07.456Z,9.95
2023-01-29T07:53:15.319Z,10.00
2023-01-29T07:58:21.320Z,9.05
2023-01-29T08:03:25.785Z,8.65
2023-01-29T08:13:36.110Z,8.02
2023-01-29T08:18:44.229Z,7.85
2023-01-29T08:23:48.513Z,7.63
2023-01-29T08:33:59.764Z,7.75
2023-01-29T08:39:04.724Z,6.28
2023-01-29T08:44:11.215Z,7.57
2023-01-29T08:49:15.659Z,6.00
2023-01-29T08:54:20.111Z,5.30
2023-01-29T08:59:25.760Z,6.63
2023-01-29T09:04:30.150Z,4.88
2023-01-29T09:09:35.030Z,5.13
2023-01-29T09:14:40.983Z,5.43
2023-01-29T09:19:45.446Z,4.68
2023-01-29T09:24:49.685Z,4.35
2023-01-29T09:29:55.341Z,4.50
2023-01-29T09:35:00.504Z,4.90
2023-01-29T09:40:05.335Z,5.10
2023-01-29T09:45:17.841Z,5.80
2023-01-29T09:50:29.688Z,6.55
2023-01-29T09:55:38.516Z,5.15
2023-01-29T10:00:52.191Z,4.30
2023-01-29T10:06:38.414Z,4.82
2023-01-29T10:11:58.276Z,6.03
2023-01-29T10:17:25.717Z,6.15
2023-01-29T10:23:02.878Z,5.80
2023-01-29T10:28:19.876Z,5.25
2023-01-29T10:33:49.036Z,4.93
2023-01-29T10:39:00.214Z,4.20
2023-01-29T10:44:20.927Z,6.35
2023-01-29T10:49:50.538Z,6.13
2023-01-29T10:55:10.334Z,5.00
2023-01-29T11:00:21.857Z,5.90
2023-01-29T11:05:35.554Z,5.57
2023-01-29T11:10:50.424Z,5.78
2023-01-29T11:15:55.568Z,6.47
2023-01-29T11:21:06.848Z,5.18
2023-01-29T11:26:15.096Z,5.57
2023-01-29T11:31:24.457Z,6.32
2023-01-29T11:36:37.093Z,5.75
2023-01-29T11:41:48.539Z,5.47
2023-01-29T11:46:53.036Z,6.43
2023-01-29T11:52:03.095Z,5.97
2023-01-29T11:57:27.475Z,5.75
2023-01-29T12:02:37.246Z,5.57
2023-01-29T12:07:45.547Z,6.97
2023-01-29T12:12:49.925Z,6.10
2023-01-29T12:23:29.481Z,7.30
2023-01-29T12:28:47.974Z,8.55
2023-01-29T12:33:59.673Z,7.35
2023-01-29T12:39:06.362Z,7.82
2023-01-29T12:44:19.529Z,7.80
2023-01-29T12:49:29.153Z,8.25
2023-01-29T12:54:41.440Z,8.65
2023-01-29T12:59:51.234Z,7.97
2023-01-29T13:05:03.757Z,7.80
2023-01-29T13:10:16.917Z,8.30
2023-01-29T13:15:30.226Z,8.10
2023-01-29T13:20:36.374Z,8.45
2023-01-29T13:25:42.454Z,9.27
2023-01-29T13:30:47.011Z,9.38
2023-01-29T13:36:00.736Z,8.60
2023-01-29T13:41:09.017Z,7.68
2023-01-29T13:46:18.433Z,9.50
2023-01-29T13:51:30.727Z,8.48
2023-01-29T13:56:59.271Z,7.95
2023-01-29T14:02:23.651Z,9.95
2023-01-29T14:07:50.998Z,9.80
2023-01-29T14:13:35.380Z,9.90
2023-01-29T14:18:48.571Z,10.17
2023-01-29T14:23:55.805Z,9.90
2023-01-29T14:29:32.589Z,11.23
2023-01-29T14:34:47.638Z,11.35
2023-01-29T14:39:54.375Z,11.50
2023-01-29T14:45:23.385Z,11.98
2023-01-29T14:50:54.881Z,13.05
2023-01-29T14:56:04.130Z,13.48
2023-01-29T15:01:22.668Z,13.43
2023-01-29T15:06:36.670Z,14.73
2023-01-29T15:11:51.167Z,14.30
2023-01-29T15:17:17.205Z,14.40
2023-01-29T15:22:25.023Z,14.43
2023-01-29T15:27:30.893Z,15.48
2023-01-29T15:32:40.144Z,15.00
2023-01-29T15:37:44.396Z,14.13
2023-01-29T15:42:49.595Z,13.15
2023-01-29T15:47:59.596Z,14.55
2023-01-29T15:53:11.127Z,12.70
2023-01-29T15:58:20.410Z,14.38
2023-01-29T16:03:28.431Z,14.40
2023-01-29T16:08:34.263Z,14.35
2023-01-29T16:13:43.265Z,13.18
2023-01-29T16:19:01.117Z,13.68
2023-01-29T16:24:12.085Z,13.50
2023-01-29T16:29:21.572Z,14.52
2023-01-29T16:34:31.926Z,13.50
2023-01-29T16:39:44.414Z,15.60
2023-01-29T16:44:54.801Z,14.38
2023-01-29T16:50:03.118Z,13.02
2023-01-29T16:55:23.116Z,13.35
2023-01-29T17:00:31.887Z,14.88
2023-01-29T17:05:39.268Z,13.73
2023-01-29T17:10:49.562Z,14.15
2023-01-29T17:15:54.056Z,13.38
2023-01-29T17:26:06.919Z,14.18
2023-01-29T17:31:12.823Z,15.43
2023-01-29T17:36:19.600Z,16.05
2023-01-29T17:41:29.397Z,16.48
2023-01-29T17:46:34.177Z,15.43
2023-01-29T17:51:40.330Z,16.98
2023-01-29T17:56:44.517Z,15.95
2023-01-29T18:01:49.349Z,15.20
2023-01-29T18:06:57.520Z,15.73
2023-01-29T18:12:01.911Z,17.15
2023-01-29T18:22:13.979Z,16.67
2023-01-29T18:27:18.393Z,14.95
2023-01-29T18:32:23.157Z,15.85
2023-01-29T18:37:29.549Z,17.20
2023-01-29T18:42:36.142Z,16.55
2023-01-29T18:47:41.185Z,18.00
2023-01-29T18:52:47.671Z,18.10
2023-01-29T18:58:26.011Z,17.85
2023-01-29T19:03:19.386Z,19.27
2023-01-29T19:08:25.189Z,17.40
2023-01-29T19:13:29.880Z,17.70
2023-01-29T19:18:34.549Z,17.85
2023-01-29T19:28:44.942Z,18.15
2023-01-29T19:33:50.191Z,19.40
2023-01-29T19:38:56.044Z,20.13
2023-01-29T19:44:00.483Z,19.33
2023-01-29T19:49:06.669Z,20.05
2023-01-29T19:54:12.543Z,20.23
2023-01-29T19:59:17.183Z,19.15
2023-01-29T20:04:21.802Z,20.85
2023-01-29T20:09:29.560Z,21.55
2023-01-29T20:14:34.191Z,22.85
2023-01-29T20:19:38.955Z,22.95
2023-01-29T20:29:48.922Z,23.65
2023-01-29T20:34:53.746Z,24.45
2023-01-29T20:39:59.542Z,24.77
2023-01-29T20:45:04.383Z,23.55
2023-01-29T20:50:10.312Z,22.92
2023-01-29T20:55:16.202Z,24.95
2023-01-29T21:00:21.601Z,25.65
2023-01-29T21:05:26.167Z,25.50
2023-01-29T21:10:31.792Z,24.25
2023-01-29T21:15:36.367Z,25.85
2023-01-29T21:20:40.864Z,24.25
2023-01-29T21:25:47.153Z,25.50
2023-01-29T21:30:51.684Z,24.33
2023-01-29T21:35:59.669Z,24.10
2023-01-29T21:41:09.011Z,26.25
2023-01-29T21:46:13.951Z,24.83
2023-01-29T21:51:18.974Z,24.83
2023-01-29T21:56:24.840Z,24.45
2023-01-29T22:01:38.180Z,25.30
2023-01-29T22:06:43.364Z,24.67
2023-01-29T22:11:49.166Z,25.70
2023-01-29T22:16:53.449Z,26.30
2023-01-29T22:27:03.323Z,23.80
2023-01-29T22:32:08.698Z,26.08
2023-01-29T22:37:13.240Z,23.77
2023-01-29T22:47:24.052Z,24.75
2023-01-29T22:52:38.302Z,25.45
2023-01-29T22:57:44.389Z,24.10
2023-01-29T23:02:49.113Z,24.02
2023-01-29T23:12:58.871Z,25.45
2023-01-29T23:18:03.616Z,23.92
2023-01-29T23:23:08.035Z,22.25
2023-01-29T23:28:14.033Z,21.08
2023-01-29T23:33:18.472Z,20.73
2023-01-29T23:38:23.283Z,19.77
2023-01-29T23:43:29.951Z,18.63
2023-01-29T23:48:34.545Z,19.83
2023-01-29T23:53:38.801Z,18.70
2023-01-29T23:58:45.279Z,17.83
